createdAt,value
2019-01-19T00:00:53.838Z,58.53
2019-01-19T00:04:07.603Z,60.60
2019-01-19T00:07:34.982Z,58.30
2019-01-19T00:10:46.958Z,58.43
2019-01-19T00:14:24.824Z,60.33
2019-01-19T00:18:03.858Z,59.30
2019-01-19T00:21:34.138Z,61.40
2019-01-19T00:25:19.670Z,59.93
2019-01-19T00:28:25.113Z,59.13
2019-01-19T00:31:30.075Z,60.67
2019-01-19T00:34:53.567Z,61.13
2019-01-19T00:38:24.636Z,57.83
2019-01-19T00:42:01.216Z,58.30
2019-01-19T00:45:30.077Z,60.47
2019-01-19T00:49:34.451Z,59.23
2019-01-19T00:52:54.391Z,58.83
2019-01-19T00:56:29.567Z,57.07
2019-01-19T00:59:33.978Z,56.93
2019-01-19T01:02:59.511Z,55.27
2019-01-19T01:06:44.047Z,54.70
2019-01-19T01:10:23.328Z,55.10
2019-01-19T01:13:31.684Z,58.13
2019-01-19T01:16:49.594Z,55.70
2019-01-19T01:20:24.330Z,54.03
2019-01-19T01:23:51.613Z,56.87
2019-01-19T01:27:10.129Z,58.47
2019-01-19T01:30:52.409Z,60.73
2019-01-19T01:34:10.142Z,57.80
2019-01-19T01:37:36.932Z,59.47
2019-01-19T01:41:05.883Z,57.63
2019-01-19T01:44:32.212Z,58.33
2019-01-19T01:48:08.072Z,60.90
2019-01-19T01:51:37.290Z,59.67
2019-01-19T01:55:08.840Z,59.70
2019-01-19T01:58:11.134Z,64.23
2019-01-19T02:01:52.214Z,59.20
2019-01-19T02:05:40.353Z,61.77
2019-01-19T02:09:02.290Z,59.20
2019-01-19T02:12:42.312Z,58.63
2019-01-19T02:16:14.272Z,60.23
2019-01-19T02:19:47.666Z,60.97
2019-01-19T02:22:56.135Z,61.97
2019-01-19T02:26:24.856Z,57.47
2019-01-19T02:29:47.578Z,59.27
2019-01-19T02:33:45.538Z,58.90
2019-01-19T02:37:08.137Z,56.33
2019-01-19T02:40:24.352Z,58.10
2019-01-19T02:43:32.700Z,57.57
2019-01-19T02:47:02.050Z,55.97
2019-01-19T02:50:19.418Z,54.27
2019-01-19T02:53:59.765Z,53.57
2019-01-19T02:57:40.347Z,54.50
2019-01-19T03:01:21.370Z,53.43
2019-01-19T03:04:49.139Z,54.70
2019-01-19T03:08:22.286Z,54.37
2019-01-19T03:11:36.738Z,53.47
2019-01-19T03:14:55.880Z,52.20
2019-01-19T03:18:19.132Z,49.27
2019-01-19T03:21:54.803Z,48.23
2019-01-19T03:25:20.631Z,47.87
2019-01-19T03:28:30.549Z,48.97
2019-01-19T03:31:49.208Z,48.03
2019-01-19T03:34:56.260Z,49.43
2019-01-19T03:38:23.691Z,49.63
2019-01-19T03:41:43.666Z,47.67
2019-01-19T03:45:26.339Z,48.03
2019-01-19T03:48:42.587Z,47.07
2019-01-19T03:51:59.823Z,48.57
2019-01-19T03:55:30.364Z,45.23
2019-01-19T03:59:03.563Z,46.20
2019-01-19T04:02:58.914Z,44.70
2019-01-19T04:06:21.582Z,44.90
2019-01-19T04:10:00.981Z,45.20
2019-01-19T04:13:22.175Z,43.33
2019-01-19T04:16:40.331Z,44.30
2019-01-19T04:20:00.648Z,44.63
2019-01-19T04:22:59.165Z,42.87
2019-01-19T04:26:28.798Z,42.37
2019-01-19T04:29:44.850Z,42.17
2019-01-19T04:32:37.933Z,38.77
2019-01-19T04:35:36.366Z,39.93
2019-01-19T04:38:36.284Z,39.07
2019-01-19T04:42:01.150Z,40.50
2019-01-19T04:44:56.282Z,41.73
2019-01-19T04:47:59.264Z,40.50
2019-01-19T04:51:01.663Z,40.37
2019-01-19T04:54:08.177Z,38.13
2019-01-19T04:57:02.484Z,38.27
2019-01-19T04:59:57.254Z,39.50
2019-01-19T05:02:52.077Z,36.13
2019-01-19T05:05:50.943Z,39.03
2019-01-19T05:08:49.937Z,37.23
2019-01-19T05:11:49.957Z,37.37
2019-01-19T05:14:52.837Z,37.10
2019-01-19T05:17:55.461Z,35.20
2019-01-19T05:21:01.759Z,35.70
2019-01-19T05:24:34.538Z,37.07
2019-01-19T05:42:29.124Z,33.53
2019-01-19T05:45:26.907Z,31.83
2019-01-19T05:48:28.515Z,32.97
2019-01-19T05:51:27.335Z,36.30
2019-01-19T05:54:23.464Z,32.23
2019-01-19T05:57:20.582Z,30.67
2019-01-19T06:00:30.444Z,30.73
2019-01-19T06:03:27.869Z,29.37
2019-01-19T06:06:22.909Z,30.80
2019-01-19T06:09:18.008Z,30.80
2019-01-19T06:12:13.257Z,30.63
2019-01-19T06:15:14.641Z,32.57
2019-01-19T06:18:10.214Z,31.90
2019-01-19T06:21:27.466Z,29.73
2019-01-19T06:24:22.149Z,30.83
2019-01-19T06:27:17.349Z,30.70
2019-01-19T06:30:26.612Z,31.77
2019-01-19T06:33:20.891Z,32.37
2019-01-19T06:36:20.606Z,31.03
2019-01-19T06:39:18.806Z,30.90
2019-01-19T06:42:16.415Z,31.00
2019-01-19T06:45:16.580Z,29.77
2019-01-19T06:48:13.777Z,30.23
2019-01-19T06:51:11.421Z,31.93
2019-01-19T06:54:07.070Z,30.83
2019-01-19T06:57:03.429Z,32.63
2019-01-19T07:00:01.075Z,32.00
2019-01-19T07:02:58.005Z,32.10
2019-01-19T07:05:54.104Z,30.70
2019-01-19T07:08:50.247Z,31.07
2019-01-19T07:11:46.595Z,30.37
2019-01-19T07:14:44.362Z,31.63
2019-01-19T07:17:43.406Z,31.90
2019-01-19T07:20:40.809Z,30.37
2019-01-19T07:23:34.519Z,31.90
2019-01-19T07:26:29.510Z,29.57
2019-01-19T07:29:47.339Z,29.47
2019-01-19T07:32:45.146Z,32.33
2019-01-19T07:35:43.536Z,32.27
2019-01-19T07:38:40.256Z,31.07
2019-01-19T07:41:37.234Z,32.07
2019-01-19T07:44:36.991Z,30.50
2019-01-19T07:47:31.933Z,29.97
2019-01-19T07:50:35.920Z,31.57
2019-01-19T07:53:33.643Z,30.23
2019-01-19T07:56:44.260Z,31.60
2019-01-19T07:59:39.533Z,31.10
2019-01-19T08:02:35.308Z,31.07
2019-01-19T08:05:30.602Z,33.10
2019-01-19T08:08:28.744Z,29.93
2019-01-19T08:11:22.244Z,32.47
2019-01-19T08:14:17.168Z,31.90
2019-01-19T08:17:11.916Z,30.73
2019-01-19T08:20:08.147Z,32.23
2019-01-19T08:23:05.099Z,32.43
2019-01-19T08:25:59.512Z,32.07
2019-01-19T08:28:54.367Z,31.53
2019-01-19T08:31:49.593Z,32.93
2019-01-19T08:34:44.499Z,31.03
2019-01-19T08:37:39.522Z,31.73
2019-01-19T08:40:44.147Z,32.70
2019-01-19T08:43:53.195Z,31.87
2019-01-19T08:46:48.844Z,32.10
2019-01-19T08:49:44.681Z,36.13
2019-01-19T08:52:40.062Z,33.37
2019-01-19T08:55:34.521Z,30.53
2019-01-19T08:58:28.891Z,32.63
2019-01-19T09:01:28.267Z,30.93
2019-01-19T09:04:23.625Z,30.53
2019-01-19T09:07:19.910Z,32.10
2019-01-19T09:10:16.247Z,32.33
2019-01-19T09:13:15.352Z,31.27
2019-01-19T09:16:16.447Z,31.40
2019-01-19T09:19:13.859Z,34.77
2019-01-19T09:22:10.221Z,33.63
2019-01-19T09:25:05.573Z,33.30
2019-01-19T09:28:03.373Z,32.13
2019-01-19T09:30:56.486Z,32.97
2019-01-19T09:34:04.365Z,32.53
2019-01-19T09:37:00.410Z,33.77
2019-01-19T09:39:54.878Z,34.27
2019-01-19T09:42:49.600Z,33.17
2019-01-19T09:45:44.868Z,32.67
2019-01-19T09:48:39.813Z,33.57
2019-01-19T09:51:41.847Z,33.13
2019-01-19T09:54:36.746Z,33.93
2019-01-19T09:57:34.106Z,32.17
2019-01-19T10:00:36.662Z,33.03
2019-01-19T10:03:31.149Z,33.67
2019-01-19T10:06:26.026Z,34.53
2019-01-19T10:09:26.594Z,32.97
2019-01-19T10:12:21.013Z,33.60
2019-01-19T10:15:19.198Z,32.47
2019-01-19T10:18:14.332Z,33.67
2019-01-19T10:21:18.105Z,31.83
2019-01-19T10:24:13.427Z,33.00
2019-01-19T10:27:13.451Z,32.73
2019-01-19T10:34:15.750Z,33.67
2019-01-19T10:37:12.393Z,33.67
2019-01-19T10:40:10.579Z,35.70
2019-01-19T10:43:09.797Z,34.30
2019-01-19T10:46:08.305Z,35.57
2019-01-19T10:49:05.643Z,32.83
2019-01-19T10:52:04.068Z,33.90
2019-01-19T10:55:00.932Z,33.63
2019-01-19T10:57:56.359Z,35.60
2019-01-19T11:00:51.727Z,32.40
2019-01-19T11:03:48.117Z,35.07
2019-01-19T11:06:43.861Z,34.10
2019-01-19T11:09:43.426Z,32.77
2019-01-19T11:12:51.160Z,32.20
2019-01-19T11:15:51.068Z,33.37
2019-01-19T11:18:50.633Z,35.33
2019-01-19T11:21:47.292Z,34.20
2019-01-19T11:24:48.419Z,34.00
2019-01-19T11:27:43.119Z,34.67
2019-01-19T11:30:43.507Z,33.17
2019-01-19T11:33:44.670Z,32.00
2019-01-19T11:36:43.048Z,33.33
2019-01-19T11:39:39.833Z,33.63
2019-01-19T11:42:36.744Z,31.27
2019-01-19T11:45:34.326Z,32.60
2019-01-19T11:48:32.563Z,32.40
2019-01-19T11:51:30.125Z,32.67
2019-01-19T11:54:25.391Z,35.30
2019-01-19T11:57:21.981Z,39.23
2019-01-19T12:00:22.331Z,37.80
2019-01-19T12:03:17.084Z,37.40
2019-01-19T12:06:12.279Z,36.80
2019-01-19T12:09:10.338Z,34.80
2019-01-19T12:12:05.620Z,35.27
2019-01-19T12:15:04.595Z,36.07
2019-01-19T12:18:00.104Z,36.53
2019-01-19T12:20:55.819Z,35.97
2019-01-19T12:23:54.908Z,37.67
2019-01-19T12:26:52.017Z,37.53
2019-01-19T12:29:47.795Z,36.43
2019-01-19T12:32:42.674Z,37.23
2019-01-19T12:35:37.432Z,35.13
2019-01-19T12:38:32.513Z,36.27
2019-01-19T12:41:28.692Z,35.70
2019-01-19T12:44:24.265Z,34.63
2019-01-19T12:47:18.831Z,35.70
2019-01-19T12:50:17.977Z,35.10
2019-01-19T12:53:14.182Z,33.80
2019-01-19T12:56:10.117Z,34.47
2019-01-19T12:59:05.964Z,35.03
2019-01-19T13:02:00.821Z,34.10
2019-01-19T13:04:55.375Z,33.77
2019-01-19T13:07:50.384Z,33.20
2019-01-19T13:10:48.657Z,33.40
2019-01-19T13:13:49.743Z,33.43
2019-01-19T13:17:28.515Z,33.23
2019-01-19T13:20:47.149Z,33.20
2019-01-19T13:24:09.488Z,33.47
2019-01-19T13:27:49.134Z,33.23
2019-01-19T13:31:22.147Z,33.13
2019-01-19T13:34:49.300Z,34.77
2019-01-19T13:38:13.270Z,32.60
2019-01-19T13:41:34.387Z,33.13
